Time;durP1;ratioP1;P1;durP2;ratioP2;P2;SDS_P1;SDS_P2;PMS_P1;PMS_P2;Temp;Humidity;BMP_temperature;BMP_pressure;BME280_temperature;BME280_humidity;BME280_pressure;Samples;Min_cycle;Max_cycle;Signal;HPM_P1;HPM_P2
2023/09/07 00:01:00;;;;;;;;;3.33;2.33;;;;;-146.67;100.00;57155.34;5101832;28;8829;-77
2023/09/07 00:03:26;;;;;;;;;4.00;4.00;;;;;-146.67;100.00;57155.34;5107591;28;8902;-77
2023/09/07 00:05:51;;;;;;;;;4.67;4.00;;;;;-146.67;100.00;57155.34;5098682;28;8882;-77
2023/09/07 00:08:17;;;;;;;;;3.33;2.33;;;;;-146.67;100.00;57155.34;5104281;28;8909;-81
2023/09/07 00:10:42;;;;;;;;;5.00;3.67;;;;;-146.67;100.00;57155.34;5116604;28;8893;-81
2023/09/07 00:13:08;;;;;;;;;3.67;3.33;;;;;-146.67;100.00;57155.34;5102073;28;8993;-81
2023/09/07 00:15:38;;;;;;;;;3.00;3.00;;;;;-146.67;100.00;57155.34;5102786;28;8886;-81
2023/09/07 00:18:04;;;;;;;;;6.33;4.00;;;;;-146.67;100.00;57155.34;5103820;28;8723;-81
2023/09/07 00:20:29;;;;;;;;;5.33;4.00;;;;;-146.67;100.00;57155.34;5102265;28;9131;-81
2023/09/07 00:22:55;;;;;;;;;4.67;4.67;;;;;-146.67;100.00;57155.34;5103364;28;9371;-81
2023/09/07 00:25:20;;;;;;;;;5.67;4.00;;;;;-146.67;100.00;57155.34;5091968;28;8801;-81
2023/09/07 00:27:46;;;;;;;;;4.00;3.67;;;;;-146.67;100.00;57155.34;5101339;28;8796;-81
2023/09/07 00:30:12;;;;;;;;;6.33;4.00;;;;;-146.67;100.00;57155.34;5123725;28;8854;-81
2023/09/07 00:32:38;;;;;;;;;5.67;5.67;;;;;-146.67;100.00;57155.34;5096144;28;10115;-80
2023/09/07 00:35:05;;;;;;;;;6.00;6.00;;;;;-146.67;100.00;57155.34;5081452;28;8777;-81
2023/09/07 00:37:31;;;;;;;;;7.33;5.00;;;;;-146.67;100.00;57155.34;5102230;28;9178;-81
2023/09/07 00:39:56;;;;;;;;;7.67;6.00;;;;;-146.67;100.00;57155.34;5102101;28;9158;-81
2023/09/07 00:42:22;;;;;;;;;4.33;3.67;;;;;-146.67;100.00;57155.34;5095417;28;11510;-81
2023/09/07 00:44:48;;;;;;;;;7.33;5.00;;;;;-146.67;100.00;57155.34;5103836;28;8915;-81
2023/09/07 00:47:17;;;;;;;;;5.33;4.00;;;;;-146.67;100.00;57155.34;5102752;28;8807;-81
2023/09/07 00:49:43;;;;;;;;;3.67;3.67;;;;;-146.67;100.00;57155.34;5100827;28;8767;-81
2023/09/07 00:52:09;;;;;;;;;5.33;5.33;;;;;-146.67;100.00;57155.34;5082650;28;10192;-81
2023/09/07 00:54:43;;;;;;;;;6.00;5.00;;;;;-146.67;100.00;57155.34;5101800;28;8779;-81
2023/09/07 00:57:15;;;;;;;;;5.67;3.00;;;;;-146.67;100.00;57155.34;5117510;28;9284;-81
2023/09/07 00:59:40;;;;;;;;;6.00;5.00;;;;;-146.67;100.00;57155.34;5102632;28;9322;-81
2023/09/07 01:02:06;;;;;;;;;7.33;6.00;;;;;-146.67;100.00;57155.34;5103303;28;9478;-81
2023/09/07 01:04:33;;;;;;;;;4.33;4.33;;;;;-146.67;100.00;57155.34;5100474;28;8820;-81
2023/09/07 01:07:32;;;;;;;;;6.00;6.00;;;;;-146.67;100.00;57155.34;5103747;28;8739;-81
2023/09/07 01:10:00;;;;;;;;;7.33;5.67;;;;;-146.67;100.00;57155.34;5102702;28;9254;-81
2023/09/07 01:12:27;;;;;;;;;4.67;4.33;;;;;-146.67;100.00;57155.34;5094588;28;10373;-81
2023/09/07 01:14:53;;;;;;;;;4.67;4.67;;;;;-146.67;100.00;57155.34;5120392;28;9537;-81
2023/09/07 01:17:18;;;;;;;;;6.33;6.33;;;;;-146.67;100.00;57155.34;5102466;28;9274;-81
2023/09/07 01:19:45;;;;;;;;;7.00;4.67;;;;;-146.67;100.00;57155.34;5113968;28;8809;-81
2023/09/07 01:22:11;;;;;;;;;4.67;4.67;;;;;-146.67;100.00;57155.34;5121703;28;8758;-81
2023/09/07 01:24:39;;;;;;;;;3.67;3.67;;;;;-146.67;100.00;57155.34;5103651;28;9487;-80
2023/09/07 01:27:05;;;;;;;;;4.67;4.67;;;;;-146.67;100.00;57155.34;5101413;28;9212;-81
2023/09/07 01:29:31;;;;;;;;;7.67;6.00;;;;;-146.67;100.00;57155.34;5100544;28;9359;-81
2023/09/07 01:31:57;;;;;;;;;5.67;3.00;;;;;-146.67;100.00;57155.34;5102408;28;8814;-81
2023/09/07 01:34:23;;;;;;;;;5.00;3.00;;;;;-146.67;100.00;57155.34;5105808;28;8739;-81
2023/09/07 01:36:49;;;;;;;;;4.00;3.33;;;;;-146.67;100.00;57155.34;5106416;28;9416;-81
2023/09/07 01:39:14;;;;;;;;;5.33;4.33;;;;;-146.67;100.00;57155.34;5100654;28;10116;-81
2023/09/07 01:41:40;;;;;;;;;6.00;5.00;;;;;-146.67;100.00;57155.34;5095487;28;9953;-81
2023/09/07 01:44:05;;;;;;;;;8.33;5.33;;;;;-146.67;100.00;57155.34;5078603;28;8835;-81
2023/09/07 01:46:31;;;;;;;;;8.67;4.00;;;;;-146.67;100.00;57155.34;5115807;28;8893;-81
2023/09/07 01:48:56;;;;;;;;;3.33;3.33;;;;;-146.67;100.00;57155.34;5098882;28;8946;-81
2023/09/07 01:51:22;;;;;;;;;4.00;4.00;;;;;-146.67;100.00;57155.34;5100238;28;8813;-81
2023/09/07 01:53:48;;;;;;;;;5.67;5.67;;;;;-146.67;100.00;57155.34;5102449;28;8835;-81
2023/09/07 01:56:16;;;;;;;;;8.00;4.00;;;;;-146.67;100.00;57155.34;5100934;28;8758;-81
2023/09/07 01:58:41;;;;;;;;;3.00;3.00;;;;;-146.67;100.00;57155.34;5100609;28;9252;-81
2023/09/07 02:01:19;;;;;;;;;3.67;3.67;;;;;-146.67;100.00;57155.34;5117238;28;9351;-80
2023/09/07 02:03:44;;;;;;;;;8.00;6.00;;;;;-146.67;100.00;57155.34;5111410;28;8774;-81
2023/09/07 02:06:10;;;;;;;;;6.00;4.67;;;;;-146.67;100.00;57155.34;5102250;28;9113;-81
2023/09/07 02:08:35;;;;;;;;;4.00;4.00;;;;;-146.67;100.00;57155.34;5101958;28;8877;-81
2023/09/07 02:11:01;;;;;;;;;6.00;5.67;;;;;-146.67;100.00;57155.34;5100189;28;9853;-80
2023/09/07 02:13:26;;;;;;;;;8.00;5.33;;;;;-146.67;100.00;57155.34;5100302;28;8889;-81
2023/09/07 02:15:51;;;;;;;;;5.67;5.00;;;;;-146.67;100.00;57155.34;5117323;28;8815;-80
2023/09/07 02:18:17;;;;;;;;;8.67;5.67;;;;;-146.67;100.00;57155.34;5100402;28;8810;-81
2023/09/07 02:20:42;;;;;;;;;5.00;5.00;;;;;-146.67;100.00;57155.34;5100914;28;8841;-81
2023/09/07 02:23:07;;;;;;;;;4.67;4.00;;;;;-146.67;100.00;57155.34;5101242;28;8838;-81
2023/09/07 02:25:34;;;;;;;;;7.00;4.67;;;;;-146.67;100.00;57155.34;5117574;28;8790;-81
2023/09/07 02:28:00;;;;;;;;;10.00;6.00;;;;;-146.67;100.00;57155.34;5100478;28;8775;-81
2023/09/07 02:30:25;;;;;;;;;5.00;5.00;;;;;-146.67;100.00;57155.34;5101432;28;9566;-81
2023/09/07 02:32:50;;;;;;;;;9.00;4.00;;;;;-146.67;100.00;57155.34;5100619;28;8853;-80
2023/09/07 02:35:16;;;;;;;;;6.33;3.67;;;;;-146.67;100.00;57155.34;5082677;28;8800;-81
2023/09/07 02:37:41;;;;;;;;;4.00;4.00;;;;;-146.67;100.00;57155.34;5105741;28;8871;-81
2023/09/07 02:40:08;;;;;;;;;5.67;5.67;;;;;-146.67;100.00;57155.34;5123593;28;8822;-81
2023/09/07 02:42:34;;;;;;;;;4.33;4.33;;;;;-146.67;100.00;57155.34;5105354;28;8779;-81
2023/09/07 02:44:59;;;;;;;;;6.00;4.00;;;;;-146.67;100.00;57155.34;5103449;28;9442;-81
2023/09/07 02:47:25;;;;;;;;;5.33;5.33;;;;;-146.67;100.00;57155.34;5086456;28;8814;-81
2023/09/07 02:49:50;;;;;;;;;5.67;5.67;;;;;-146.67;100.00;57155.34;5104920;28;8795;-81
2023/09/07 02:52:16;;;;;;;;;7.00;5.00;;;;;-146.67;100.00;57155.34;5106288;28;8909;-81
2023/09/07 02:54:41;;;;;;;;;6.33;5.67;;;;;-146.67;100.00;57155.34;5103649;28;8865;-81
2023/09/07 02:57:07;;;;;;;;;7.67;5.00;;;;;-146.67;100.00;57155.34;5103470;28;8889;-81
2023/09/07 02:59:33;;;;;;;;;9.33;5.00;;;;;-146.67;100.00;57155.34;5104598;28;10330;-80
2023/09/07 03:01:58;;;;;;;;;8.00;4.33;;;;;-146.67;100.00;57155.34;5103430;28;8822;-80
2023/09/07 03:04:24;;;;;;;;;6.33;4.67;;;;;-146.67;100.00;57155.34;5106627;28;8855;-81
2023/09/07 03:06:49;;;;;;;;;6.00;6.00;;;;;-146.67;100.00;57155.34;5125913;28;8807;-81
2023/09/07 03:09:14;;;;;;;;;7.00;4.67;;;;;-146.67;100.00;57155.34;5090768;28;9784;-80
2023/09/07 03:11:40;;;;;;;;;6.75;5.75;;;;;-146.67;100.00;57155.34;5103956;28;8795;-81
2023/09/07 03:14:05;;;;;;;;;6.33;5.00;;;;;-146.67;100.00;57155.34;5103340;28;8826;-80
2023/09/07 03:16:31;;;;;;;;;9.25;8.25;;;;;-146.67;100.00;57155.34;5104086;28;8909;-81
2023/09/07 03:18:56;;;;;;;;;5.67;5.67;;;;;-146.67;100.00;57155.34;5116377;28;8799;-81
2023/09/07 03:21:25;;;;;;;;;11.25;8.25;;;;;-146.67;100.00;57155.34;5084750;28;8831;-81
2023/09/07 03:23:52;;;;;;;;;7.00;7.00;;;;;-146.67;100.00;57155.34;5102814;28;8826;-81
2023/09/07 03:26:18;;;;;;;;;8.50;7.00;;;;;-146.67;100.00;57155.34;5123319;28;9696;-81
2023/09/07 03:28:43;;;;;;;;;7.00;7.00;;;;;-146.67;100.00;57155.34;5113871;28;9816;-81
2023/09/07 03:31:08;;;;;;;;;10.00;7.50;;;;;-146.67;100.00;57155.34;5124438;28;8789;-80
2023/09/07 03:33:34;;;;;;;;;9.00;9.00;;;;;-146.67;100.00;57155.34;5107232;28;8783;-81
2023/09/07 03:35:59;;;;;;;;;10.75;8.00;;;;;-146.67;100.00;57155.34;5095121;28;8824;-81
2023/09/07 03:38:25;;;;;;;;;9.00;7.25;;;;;-146.67;100.00;57155.34;5103069;28;8937;-81
2023/09/07 03:40:50;;;;;;;;;10.50;9.50;;;;;-146.67;100.00;57155.34;5102783;28;8799;-81
2023/09/07 03:43:16;;;;;;;;;5.75;5.75;;;;;-146.67;100.00;57155.34;5103336;28;8819;-81
2023/09/07 03:45:41;;;;;;;;;13.50;10.75;;;;;-146.67;100.00;57155.34;5107516;28;8903;-81
2023/09/07 03:48:06;;;;;;;;;10.75;8.00;;;;;-146.67;100.00;57155.34;5116682;28;9519;-80
2023/09/07 03:50:32;;;;;;;;;9.00;7.00;;;;;-146.67;100.00;57155.34;5116204;28;8779;-80
2023/09/07 03:52:57;;;;;;;;;8.50;7.25;;;;;-146.67;100.00;57155.34;5103131;28;8794;-80
2023/09/07 03:55:23;;;;;;;;;9.00;7.50;;;;;-146.67;100.00;57155.34;5101956;28;8799;-80
2023/09/07 03:57:49;;;;;;;;;8.25;6.25;;;;;-146.67;100.00;57155.34;5101770;28;10270;-80
2023/09/07 04:00:15;;;;;;;;;11.50;10.00;;;;;-146.67;100.00;57155.34;5102926;28;11624;-80
2023/09/07 04:02:41;;;;;;;;;6.75;6.75;;;;;-146.67;100.00;57155.34;5104613;28;8754;-80
2023/09/07 04:05:06;;;;;;;;;5.25;5.25;;;;;-146.67;100.00;57155.34;5103100;28;9641;-81
2023/09/07 04:07:32;;;;;;;;;13.25;7.50;;;;;-146.67;100.00;57155.34;5101611;28;8787;-81
2023/09/07 04:09:58;;;;;;;;;7.25;7.25;;;;;-146.67;100.00;57155.34;5103706;28;8848;-81
2023/09/07 04:12:24;;;;;;;;;9.25;7.50;;;;;-146.67;100.00;57155.34;5110170;28;8802;-81
2023/09/07 04:14:49;;;;;;;;;9.00;9.00;;;;;-146.67;100.00;57155.34;5102826;28;8807;-80
2023/09/07 04:17:15;;;;;;;;;11.00;7.00;;;;;-146.67;100.00;57155.34;5102221;28;11733;-81
2023/09/07 04:19:40;;;;;;;;;10.00;7.33;;;;;-146.67;100.00;57155.34;5098224;28;9261;-80
2023/09/07 04:22:06;;;;;;;;;10.50;8.25;;;;;-146.67;100.00;57155.34;5084859;28;9429;-80
2023/09/07 04:24:31;;;;;;;;;8.00;5.75;;;;;-146.67;100.00;57155.34;5101998;28;8860;-80
2023/09/07 04:27:01;;;;;;;;;17.00;12.75;;;;;-146.67;100.00;57155.34;5100156;28;9577;-80
2023/09/07 04:29:26;;;;;;;;;14.50;9.00;;;;;-146.67;100.00;57155.34;5116224;28;8727;-81
2023/09/07 04:31:52;;;;;;;;;15.00;12.50;;;;;-146.67;100.00;57155.34;5118942;28;9744;-81
2023/09/07 04:34:17;;;;;;;;;11.50;11.00;;;;;-146.67;100.00;57155.34;5102414;28;8819;-80
2023/09/07 04:36:42;;;;;;;;;8.75;7.00;;;;;-146.67;100.00;57155.34;5103655;28;8853;-81
2023/09/07 04:39:08;;;;;;;;;8.75;8.75;;;;;-146.67;100.00;57155.34;5119180;28;10032;-81
2023/09/07 04:41:34;;;;;;;;;9.50;8.00;;;;;-146.67;100.00;57155.34;5084018;28;8773;-80
2023/09/07 04:43:59;;;;;;;;;10.75;8.00;;;;;-146.67;100.00;57155.34;5099914;28;8831;-80
2023/09/07 04:46:25;;;;;;;;;8.25;7.25;;;;;-146.67;100.00;57155.34;5115181;28;9928;-81
2023/09/07 04:48:50;;;;;;;;;7.75;7.75;;;;;-146.67;100.00;57155.34;5093598;28;8810;-81
2023/09/07 04:51:16;;;;;;;;;8.75;7.75;;;;;-146.67;100.00;57155.34;5092024;28;8903;-80
2023/09/07 04:53:41;;;;;;;;;6.75;6.50;;;;;-146.67;100.00;57155.34;5064291;28;8777;-81
2023/09/07 04:56:08;;;;;;;;;9.25;8.75;;;;;-146.67;100.00;57155.34;5092020;28;10119;-80
2023/09/07 04:58:34;;;;;;;;;9.00;7.75;;;;;-146.67;100.00;57155.34;5094597;28;8747;-81
2023/09/07 05:01:04;;;;;;;;;6.25;5.00;;;;;-146.67;100.00;57155.34;5084651;28;9639;-81
2023/09/07 05:03:29;;;;;;;;;8.75;7.50;;;;;-146.67;100.00;57155.34;5085612;28;9999;-78
2023/09/07 05:05:56;;;;;;;;;7.00;6.75;;;;;-146.67;100.00;57155.34;5103176;28;9951;-80
2023/09/07 05:08:22;;;;;;;;;9.25;6.50;;;;;-146.67;100.00;57155.34;5099233;28;8799;-82
2023/09/07 05:10:48;;;;;;;;;12.75;10.50;;;;;-146.67;100.00;57155.34;5118627;28;9717;-83
2023/09/07 05:13:14;;;;;;;;;9.25;8.50;;;;;-146.67;100.00;57155.34;5082375;28;9690;-80
2023/09/07 05:15:50;;;;;;;;;8.50;8.00;;;;;-146.67;100.00;57155.34;5104865;28;10023;-80
2023/09/07 05:18:17;;;;;;;;;10.25;10.25;;;;;-146.67;100.00;57155.34;5075482;28;8825;-79
2023/09/07 05:20:44;;;;;;;;;10.50;9.00;;;;;-146.67;100.00;57155.34;5099705;28;9883;-77
2023/09/07 05:23:15;;;;;;;;;9.75;8.75;;;;;-146.67;100.00;57155.34;5098002;28;10680;-80
2023/09/07 05:25:48;;;;;;;;;11.75;9.25;;;;;-146.67;100.00;57155.34;5099772;28;10091;-86
2023/09/07 05:28:15;;;;;;;;;10.75;10.75;;;;;-146.67;100.00;57155.34;5083759;28;9839;-77
2023/09/07 05:30:41;;;;;;;;;7.25;6.75;;;;;-146.67;100.00;57155.34;5100001;28;9858;-81
2023/09/07 05:33:12;;;;;;;;;10.00;8.50;;;;;-146.67;100.00;57155.34;5097817;28;9903;-78
2023/09/07 05:35:38;;;;;;;;;11.00;9.00;;;;;-146.67;100.00;57155.34;5107967;28;10067;-78
2023/09/07 05:38:05;;;;;;;;;10.75;9.50;;;;;-146.67;100.00;57155.34;5099451;28;9910;-77
2023/09/07 05:40:34;;;;;;;;;11.00;10.00;;;;;-146.67;100.00;57155.34;5082746;28;8821;-77
2023/09/07 05:43:00;;;;;;;;;12.00;9.50;;;;;-146.67;100.00;57155.34;5108752;28;9885;-77
2023/09/07 05:45:25;;;;;;;;;12.25;10.75;;;;;-146.67;100.00;57155.34;5102578;28;10068;-78
2023/09/07 05:47:51;;;;;;;;;10.25;9.25;;;;;-146.67;100.00;57155.34;5095256;28;8807;-77
2023/09/07 05:50:16;;;;;;;;;11.75;8.75;;;;;-146.67;100.00;57155.34;5099295;28;8794;-78
2023/09/07 05:52:42;;;;;;;;;12.00;9.75;;;;;-146.67;100.00;57155.34;5117837;27;8791;-77
2023/09/07 05:55:07;;;;;;;;;10.50;8.75;;;;;-146.67;100.00;57155.34;5109608;28;8805;-77
2023/09/07 05:57:33;;;;;;;;;12.00;10.00;;;;;-146.67;100.00;57155.34;5122646;28;8799;-77
2023/09/07 05:59:58;;;;;;;;;9.25;9.25;;;;;-146.67;100.00;57155.34;5122653;28;8837;-77
2023/09/07 06:02:24;;;;;;;;;9.00;9.00;;;;;-146.67;100.00;57155.34;5103718;28;8807;-77
2023/09/07 06:04:49;;;;;;;;;10.75;8.75;;;;;-146.67;100.00;57155.34;5106346;28;8816;-77
2023/09/07 06:07:14;;;;;;;;;10.50;9.75;;;;;-146.67;100.00;57155.34;5122737;28;8835;-76
2023/09/07 06:09:40;;;;;;;;;11.75;8.50;;;;;-146.67;100.00;57155.34;5101886;28;9598;-77
2023/09/07 06:12:06;;;;;;;;;9.25;9.25;;;;;-146.67;100.00;57155.34;5097537;28;8795;-77
2023/09/07 06:14:31;;;;;;;;;12.50;12.00;;;;;-146.67;100.00;57155.34;5114011;28;8812;-79
2023/09/07 06:16:56;;;;;;;;;9.25;9.00;;;;;-146.67;100.00;57155.34;5103084;28;8811;-77
2023/09/07 06:19:22;;;;;;;;;11.25;10.25;;;;;-146.67;100.00;57155.34;5096993;28;8823;-77
2023/09/07 06:21:48;;;;;;;;;10.00;8.00;;;;;-146.67;100.00;57155.34;5118374;28;8816;-76
2023/09/07 06:24:14;;;;;;;;;11.50;10.75;;;;;-146.67;100.00;57155.34;5103281;28;10101;-82
2023/09/07 06:26:40;;;;;;;;;10.75;9.00;;;;;-146.67;100.00;57155.34;5103317;28;10047;-77
2023/09/07 06:29:05;;;;;;;;;14.00;11.50;;;;;-146.67;100.00;57155.34;5086760;28;8809;-78
2023/09/07 06:31:31;;;;;;;;;15.00;13.50;;;;;-146.67;100.00;57155.34;5103155;28;8829;-78
2023/09/07 06:33:56;;;;;;;;;8.50;8.50;;;;;-146.67;100.00;57155.34;5094205;28;8789;-78
2023/09/07 06:36:22;;;;;;;;;9.00;9.00;;;;;-146.67;100.00;57155.34;5103420;28;8833;-78
2023/09/07 06:38:47;;;;;;;;;17.50;13.50;;;;;-146.67;100.00;57155.34;5102701;28;8803;-77
2023/09/07 06:41:13;;;;;;;;;14.75;12.25;;;;;-146.67;100.00;57155.34;5100521;28;8803;-77
2023/09/07 06:43:38;;;;;;;;;12.00;12.00;;;;;-146.67;100.00;57155.34;5102626;28;9699;-77
2023/09/07 06:46:08;;;;;;;;;13.25;7.75;;;;;-146.67;100.00;57155.34;5110503;28;9001;-78
2023/09/07 06:48:35;;;;;;;;;12.25;8.25;;;;;-146.67;100.00;57155.34;5103994;28;9870;-77
2023/09/07 06:51:05;;;;;;;;;8.75;7.75;;;;;-146.67;100.00;57155.34;5097366;28;10628;-82
2023/09/07 06:53:31;;;;;;;;;14.50;9.25;;;;;-146.67;100.00;57155.34;5066449;28;10079;-81
2023/09/07 06:56:04;;;;;;;;;11.00;7.33;;;;;-146.67;100.00;57155.34;5105011;28;9691;-82
2023/09/07 06:58:29;;;;;;;;;6.33;6.00;;;;;-146.67;100.00;57155.34;5104766;28;8720;-82
2023/09/07 07:00:58;;;;;;;;;9.33;8.67;;;;;-146.67;100.00;57155.34;5104046;28;9498;-82
2023/09/07 07:03:29;;;;;;;;;11.25;10.00;;;;;-146.67;100.00;57155.34;5104595;28;9735;-82
2023/09/07 07:05:55;;;;;;;;;10.00;7.33;;;;;-146.67;100.00;57155.34;5087269;28;9513;-81
2023/09/07 07:08:20;;;;;;;;;6.33;6.33;;;;;-146.67;100.00;57155.34;5103145;28;9371;-81
2023/09/07 07:10:45;;;;;;;;;7.00;7.00;;;;;-146.67;100.00;57155.34;5103694;28;9481;-82
2023/09/07 07:13:11;;;;;;;;;14.00;9.33;;;;;-146.67;100.00;57155.34;5107462;28;9969;-81
2023/09/07 07:15:37;;;;;;;;;16.33;10.67;;;;;-146.67;100.00;57155.34;5106952;28;8793;-82
2023/09/07 07:18:08;;;;;;;;;7.00;7.00;;;;;-146.67;100.00;57155.34;5141451;27;8854;-82
2023/09/07 07:20:35;;;;;;;;;12.00;10.00;;;;;-146.67;100.00;57155.34;5106481;28;9162;-82
2023/09/07 07:23:00;;;;;;;;;9.33;7.67;;;;;-146.67;100.00;57155.34;5111111;28;10233;-82
2023/09/07 07:25:26;;;;;;;;;8.33;7.00;;;;;-146.67;100.00;57155.34;5117126;28;10081;-82
2023/09/07 07:27:51;;;;;;;;;8.33;7.67;;;;;-146.67;100.00;57155.34;5103425;28;8822;-82
2023/09/07 07:30:17;;;;;;;;;9.33;9.33;;;;;-146.67;100.00;57155.34;5105036;28;8783;-82
2023/09/07 07:32:42;;;;;;;;;8.33;8.33;;;;;-146.67;100.00;57155.34;5103001;28;10935;-82
2023/09/07 07:35:08;;;;;;;;;8.00;7.67;;;;;-146.67;100.00;57155.34;5103512;28;8823;-82
2023/09/07 07:37:33;;;;;;;;;10.33;9.00;;;;;-146.67;100.00;57155.34;5104029;28;8817;-82
2023/09/07 07:39:58;;;;;;;;;10.00;8.33;;;;;-146.67;100.00;57155.34;5104448;28;8775;-82
2023/09/07 07:42:24;;;;;;;;;8.00;7.00;;;;;-146.67;100.00;57155.34;5102966;28;9941;-82
2023/09/07 07:44:49;;;;;;;;;8.00;8.00;;;;;-146.67;100.00;57155.34;5103274;28;8818;-82
2023/09/07 07:47:15;;;;;;;;;9.33;7.00;;;;;-146.67;100.00;57155.34;5103111;28;8826;-82
2023/09/07 07:49:40;;;;;;;;;10.67;10.67;;;;;-146.67;100.00;57155.34;5101852;28;8782;-82
2023/09/07 07:52:05;;;;;;;;;11.67;8.67;;;;;-146.67;100.00;57155.34;5102466;28;8789;-82
2023/09/07 07:54:33;;;;;;;;;6.00;6.00;;;;;-146.67;100.00;57155.34;5120136;28;8884;-82
2023/09/07 07:56:59;;;;;;;;;8.00;6.67;;;;;-146.67;100.00;57155.34;5102937;28;8823;-82
2023/09/07 07:59:24;;;;;;;;;7.00;7.00;;;;;-146.67;100.00;57155.34;5120255;28;9261;-82
2023/09/07 08:01:49;;;;;;;;;10.33;9.67;;;;;-146.67;100.00;57155.34;5102452;28;10231;-82
2023/09/07 08:04:15;;;;;;;;;11.67;9.33;;;;;-146.67;100.00;57155.34;5116604;28;8930;-83
2023/09/07 08:06:40;;;;;;;;;16.00;13.25;;;;;-146.67;100.00;57155.34;5121923;28;8837;-81
2023/09/07 08:09:06;;;;;;;;;7.00;6.00;;;;;-146.67;100.00;57155.34;5102905;28;8861;-82
2023/09/07 08:11:31;;;;;;;;;12.25;11.50;;;;;-146.67;100.00;57155.34;5085501;28;10082;-81
2023/09/07 08:13:57;;;;;;;;;14.00;11.00;;;;;-146.67;100.00;57155.34;5120905;28;8825;-82
2023/09/07 08:16:22;;;;;;;;;10.67;9.33;;;;;-146.67;100.00;57155.34;5124688;28;8785;-82
2023/09/07 08:18:48;;;;;;;;;13.00;10.00;;;;;-146.67;100.00;57155.34;5123800;28;8959;-81
2023/09/07 08:21:14;;;;;;;;;10.00;8.00;;;;;-146.67;100.00;57155.34;5104877;28;9835;-81
2023/09/07 08:23:40;;;;;;;;;6.67;5.67;;;;;-146.67;100.00;57155.34;5103503;28;9732;-82
2023/09/07 08:26:05;;;;;;;;;11.00;8.33;;;;;-146.67;100.00;57155.34;5119445;28;9410;-82
2023/09/07 08:28:31;;;;;;;;;7.00;7.00;;;;;-146.67;100.00;57155.34;5085820;28;8806;-82
2023/09/07 08:30:58;;;;;;;;;9.33;6.67;;;;;-146.67;100.00;57155.34;5085315;28;9973;-81
2023/09/07 08:33:28;;;;;;;;;10.00;9.00;;;;;-146.67;100.00;57155.34;5084061;28;9735;-81
2023/09/07 08:35:55;;;;;;;;;9.33;8.00;;;;;-146.67;100.00;57155.34;5085483;28;9405;-81
2023/09/07 08:38:27;;;;;;;;;10.00;8.00;;;;;-146.67;100.00;57155.34;5085515;28;9538;-81
2023/09/07 08:40:55;;;;;;;;;9.33;9.33;;;;;-146.67;100.00;57155.34;5084652;28;10352;-81
2023/09/07 08:43:21;;;;;;;;;10.33;8.00;;;;;-146.67;100.00;57155.34;5104877;28;9332;-81
2023/09/07 08:45:53;;;;;;;;;7.00;6.33;;;;;-146.67;100.00;57155.34;5102126;28;9737;-81
2023/09/07 08:48:20;;;;;;;;;9.00;8.00;;;;;-146.67;100.00;57155.34;5102706;28;8708;-81
2023/09/07 08:50:49;;;;;;;;;10.33;9.67;;;;;-146.67;100.00;57155.34;5101212;28;9507;-81
2023/09/07 08:53:19;;;;;;;;;9.33;8.33;;;;;-146.67;100.00;57155.34;5102147;28;9425;-81
2023/09/07 08:55:44;;;;;;;;;10.00;7.00;;;;;-146.67;100.00;57155.34;5084847;28;9341;-81
2023/09/07 08:58:10;;;;;;;;;11.00;9.67;;;;;-146.67;100.00;57155.34;5102160;28;9412;-81
2023/09/07 09:00:36;;;;;;;;;12.00;8.67;;;;;-146.67;100.00;57155.34;5119031;28;9898;-81
2023/09/07 09:03:03;;;;;;;;;12.33;9.33;;;;;-146.67;100.00;57155.34;5101032;28;8918;-81
2023/09/07 09:05:30;;;;;;;;;10.67;9.00;;;;;-146.67;100.00;57155.34;5102140;28;9424;-81
2023/09/07 09:08:05;;;;;;;;;8.67;8.33;;;;;-146.67;100.00;57155.34;5103264;28;10290;-81
2023/09/07 09:10:31;;;;;;;;;11.33;9.67;;;;;-146.67;100.00;57155.34;5101843;28;10041;-82
2023/09/07 09:12:59;;;;;;;;;11.33;10.00;;;;;-146.67;100.00;57155.34;5103101;28;9439;-83
2023/09/07 09:15:25;;;;;;;;;10.00;8.67;;;;;-146.67;100.00;57155.34;5085126;28;8911;-81
2023/09/07 09:17:51;;;;;;;;;11.33;10.67;;;;;-146.67;100.00;57155.34;5102440;28;9312;-81
2023/09/07 09:20:24;;;;;;;;;11.00;8.00;;;;;-146.67;100.00;57155.34;5100930;28;8803;-81
2023/09/07 09:22:52;;;;;;;;;11.33;10.33;;;;;-146.67;100.00;57155.34;5118563;28;8732;-82
2023/09/07 09:25:17;;;;;;;;;10.00;8.00;;;;;-146.67;100.00;57155.34;5101342;28;9418;-81
2023/09/07 09:27:43;;;;;;;;;10.00;10.00;;;;;-146.67;100.00;57155.34;5102726;28;9389;-81
2023/09/07 09:30:08;;;;;;;;;10.67;10.33;;;;;-146.67;100.00;57155.34;5101637;28;9856;-81
2023/09/07 09:32:34;;;;;;;;;8.67;7.33;;;;;-146.67;100.00;57155.34;5101098;28;9570;-81
2023/09/07 09:35:00;;;;;;;;;8.00;8.00;;;;;-146.67;100.00;57155.34;5101379;28;8837;-81
2023/09/07 09:37:26;;;;;;;;;10.33;10.33;;;;;-146.67;100.00;57155.34;5101834;28;8776;-81
2023/09/07 09:39:53;;;;;;;;;10.67;9.00;;;;;-146.67;100.00;57155.34;5101542;28;9586;-81
2023/09/07 09:42:20;;;;;;;;;11.00;8.00;;;;;-146.67;100.00;57155.34;5100635;28;8730;-81
2023/09/07 09:44:49;;;;;;;;;9.33;8.67;;;;;-146.67;100.00;57155.34;5102351;28;9276;-81
2023/09/07 09:47:15;;;;;;;;;11.67;8.00;;;;;-146.67;100.00;57155.34;5104364;28;9337;-81
2023/09/07 09:49:41;;;;;;;;;11.00;9.33;;;;;-146.67;100.00;57155.34;5105776;28;9422;-81
2023/09/07 09:52:07;;;;;;;;;12.00;9.00;;;;;-146.67;100.00;57155.34;5104947;28;9253;-81
2023/09/07 09:54:35;;;;;;;;;11.00;10.00;;;;;-146.67;100.00;57155.34;5106322;28;8852;-81
2023/09/07 09:57:00;;;;;;;;;9.33;6.00;;;;;-146.67;100.00;57155.34;5104821;28;9271;-82
2023/09/07 09:59:26;;;;;;;;;17.67;13.33;;;;;-146.67;100.00;57155.34;5104903;28;10129;-81
2023/09/07 10:01:54;;;;;;;;;12.67;9.00;;;;;-146.67;100.00;57155.34;5105610;28;9415;-79
2023/09/07 10:04:22;;;;;;;;;9.00;9.00;;;;;-146.67;100.00;57155.34;5105669;28;8803;-81
2023/09/07 10:07:01;;;;;;;;;9.33;6.67;;;;;-146.67;100.00;57155.34;5106367;28;9333;-81
2023/09/07 10:09:32;;;;;;;;;8.67;7.33;;;;;-146.67;100.00;57155.34;5087465;28;9515;-82
2023/09/07 10:11:59;;;;;;;;;11.33;7.67;;;;;-146.67;100.00;57155.34;5105733;28;9106;-81
2023/09/07 10:14:25;;;;;;;;;9.67;9.67;;;;;-146.67;100.00;57155.34;5106025;28;9442;-81
2023/09/07 10:16:59;;;;;;;;;11.67;9.33;;;;;-146.67;100.00;57155.34;5087181;28;9308;-81
2023/09/07 10:19:26;;;;;;;;;10.00;8.33;;;;;-146.67;100.00;57155.34;5105038;28;8719;-81
2023/09/07 10:21:55;;;;;;;;;11.00;9.67;;;;;-146.67;100.00;57155.34;5104053;28;9349;-81
2023/09/07 10:24:29;;;;;;;;;6.33;6.33;;;;;-146.67;100.00;57155.34;5104222;28;9408;-81
2023/09/07 10:27:08;;;;;;;;;10.67;9.67;;;;;-146.67;100.00;57155.34;5105677;28;9256;-81
2023/09/07 10:29:42;;;;;;;;;11.33;9.33;;;;;-146.67;100.00;57155.34;5104602;28;9418;-81
2023/09/07 10:32:08;;;;;;;;;8.33;7.00;;;;;-146.67;100.00;57155.34;5105700;28;9466;-81
2023/09/07 10:34:37;;;;;;;;;10.00;10.00;;;;;-146.67;100.00;57155.34;5103950;28;10335;-82
2023/09/07 10:37:03;;;;;;;;;10.67;8.00;;;;;-146.67;100.00;57155.34;5105854;28;9210;-82
2023/09/07 10:39:31;;;;;;;;;8.33;7.33;;;;;-146.67;100.00;57155.34;5104056;28;10106;-81
2023/09/07 10:41:57;;;;;;;;;11.67;10.00;;;;;-146.67;100.00;57155.34;5105295;28;9070;-81
2023/09/07 10:44:27;;;;;;;;;11.00;10.33;;;;;-146.67;100.00;57155.34;5103837;28;9094;-81
2023/09/07 10:46:54;;;;;;;;;10.00;9.00;;;;;-146.67;100.00;57155.34;5124576;28;8895;-81
2023/09/07 10:49:19;;;;;;;;;11.67;8.33;;;;;-146.67;100.00;57155.34;5107745;28;9164;-82
2023/09/07 10:51:46;;;;;;;;;12.33;10.67;;;;;-146.67;100.00;57155.34;5124985;28;9207;-81
2023/09/07 10:54:23;;;;;;;;;12.33;9.00;;;;;-146.67;100.00;57155.34;5124585;28;8805;-81
2023/09/07 10:56:50;;;;;;;;;12.67;9.33;;;;;-146.67;100.00;57155.34;5124810;28;9060;-81
2023/09/07 10:59:16;;;;;;;;;11.00;9.00;;;;;-146.67;100.00;57155.34;5123574;28;9291;-81
2023/09/07 11:01:45;;;;;;;;;9.33;8.00;;;;;-146.67;100.00;57155.34;5125660;28;8948;-81
2023/09/07 11:04:11;;;;;;;;;11.33;10.00;;;;;-146.67;100.00;57155.34;5124277;28;9149;-82
2023/09/07 11:06:39;;;;;;;;;10.67;8.33;;;;;-146.67;100.00;57155.34;5125400;28;9176;-81
2023/09/07 11:09:08;;;;;;;;;7.33;7.33;;;;;-146.67;100.00;57155.34;5124433;28;8885;-82